createdAt,value
2023-02-11T00:14:01.962Z,2.23
2023-02-11T00:29:01.810Z,2.28
2023-02-11T00:44:01.683Z,2.41
2023-02-11T00:59:01.539Z,2.45
2023-02-11T01:14:01.369Z,2.33
2023-02-11T01:29:01.310Z,2.27
2023-02-11T01:44:01.065Z,2.26
2023-02-11T01:59:00.910Z,2.27
2023-02-11T02:14:00.752Z,2.27
2023-02-11T02:29:00.584Z,2.66
2023-02-11T02:44:00.461Z,2.76
2023-02-11T02:59:00.298Z,2.84
2023-02-11T03:14:00.140Z,2.82
2023-02-11T03:28:59.954Z,2.92
2023-02-11T03:43:59.831Z,2.92
2023-02-11T03:58:59.658Z,2.95
2023-02-11T04:13:59.513Z,3.07
2023-02-11T04:28:59.364Z,3.25
2023-02-11T04:43:59.215Z,3.44
2023-02-11T04:58:59.065Z,3.82
2023-02-11T05:13:58.919Z,3.80
2023-02-11T05:28:58.775Z,3.92
2023-02-11T05:43:58.627Z,3.97
2023-02-11T05:58:58.479Z,3.97
2023-02-11T06:13:58.314Z,4.12
2023-02-11T06:28:58.145Z,4.15
2023-02-11T06:43:58.004Z,4.32
2023-02-11T06:58:57.843Z,4.39
2023-02-11T07:13:57.702Z,4.51
2023-02-11T07:28:57.642Z,4.54
2023-02-11T07:43:57.331Z,4.64
2023-02-11T07:58:57.183Z,4.75
2023-02-11T08:13:57.010Z,4.72
2023-02-11T08:28:56.854Z,5.16
2023-02-11T08:43:56.675Z,5.20
2023-02-11T08:58:56.552Z,5.34
2023-02-11T09:13:56.375Z,5.53
2023-02-11T09:28:56.588Z,5.49
2023-02-11T09:43:56.044Z,5.60
2023-02-11T09:58:55.883Z,5.57
2023-02-11T10:13:55.759Z,5.89
2023-02-11T10:28:55.589Z,5.91
2023-02-11T10:43:55.389Z,5.83
2023-02-11T10:58:55.245Z,5.85
2023-02-11T11:13:55.062Z,5.91
2023-02-11T11:28:54.911Z,5.88
2023-02-11T11:43:54.746Z,6.03
2023-02-11T11:58:54.597Z,6.16
2023-02-11T12:13:54.451Z,6.29
2023-02-11T12:28:54.570Z,6.33
2023-02-11T12:43:54.231Z,6.30
2023-02-11T12:58:53.990Z,6.40
2023-02-11T13:13:53.826Z,6.50
2023-02-11T13:28:53.747Z,6.58
2023-02-11T13:43:53.500Z,6.53
2023-02-11T13:58:53.345Z,6.61
2023-02-11T14:13:53.223Z,6.71
2023-02-11T14:28:53.039Z,6.66
2023-02-11T14:43:52.884Z,6.69
2023-02-11T14:58:52.741Z,6.73
2023-02-11T15:13:55.062Z,6.81
2023-02-11T15:28:52.419Z,6.90
2023-02-11T15:43:52.261Z,7.07
2023-02-11T15:58:52.142Z,7.22
2023-02-11T16:13:51.989Z,7.04
2023-02-11T16:28:51.983Z,6.94
2023-02-11T16:43:51.651Z,7.02
2023-02-11T16:58:52.134Z,7.01
2023-02-11T17:13:51.332Z,7.02
2023-02-11T17:28:51.195Z,6.95
2023-02-11T17:43:51.060Z,6.99
2023-02-11T17:58:50.952Z,6.97
2023-02-11T18:13:50.716Z,7.01
2023-02-11T18:28:51.596Z,7.01
2023-02-11T18:43:50.416Z,7.16
2023-02-11T18:58:50.268Z,7.04
2023-02-11T19:13:50.122Z,7.05
2023-02-11T19:28:49.968Z,7.07
2023-02-11T19:43:49.840Z,7.04
2023-02-11T19:58:49.663Z,6.99
2023-02-11T20:13:49.506Z,6.83
2023-02-11T20:28:49.431Z,6.91
2023-02-11T20:43:49.190Z,6.94
2023-02-11T20:58:55.040Z,6.80
2023-02-11T21:13:48.919Z,6.90
2023-02-11T21:28:49.012Z,6.89
2023-02-11T21:43:48.575Z,6.87
2023-02-11T21:58:48.435Z,6.87
2023-02-11T22:13:48.285Z,6.80
2023-02-11T22:28:48.127Z,6.79
2023-02-11T22:43:47.974Z,6.73
2023-02-11T22:58:47.881Z,6.68
2023-02-11T23:13:48.020Z,6.63
2023-02-11T23:28:47.622Z,6.59
2023-02-11T23:43:47.375Z,6.50
2023-02-11T23:58:47.220Z,6.50
